createdAt,value
2022-08-21T00:00:29.957Z,21.88
2022-08-21T00:03:07.160Z,21.84
2022-08-21T00:05:43.105Z,21.89
2022-08-21T00:08:11.297Z,21.85
2022-08-21T00:10:41.208Z,21.84
2022-08-21T00:13:08.937Z,21.84
2022-08-21T00:15:38.972Z,21.87
2022-08-21T00:18:09.917Z,21.88
2022-08-21T00:20:39.301Z,21.91
2022-08-21T00:23:07.526Z,22.02
2022-08-21T00:25:35.930Z,21.99
2022-08-21T00:28:04.233Z,22.00
2022-08-21T00:30:32.934Z,22.01
2022-08-21T00:33:01.457Z,21.98
2022-08-21T00:35:36.425Z,21.90
2022-08-21T00:38:06.640Z,21.89
2022-08-21T00:40:51.368Z,21.81
2022-08-21T00:43:28.632Z,21.67
2022-08-21T00:45:57.604Z,21.58
2022-08-21T00:48:26.021Z,21.51
2022-08-21T00:51:15.285Z,21.36
2022-08-21T00:53:49.334Z,21.26
2022-08-21T00:56:24.604Z,21.28
2022-08-21T00:58:55.152Z,21.34
2022-08-21T01:01:22.666Z,21.37
2022-08-21T01:03:50.721Z,21.34
2022-08-21T01:06:18.860Z,21.30
2022-08-21T01:08:47.247Z,21.23
2022-08-21T01:11:16.876Z,21.10
2022-08-21T01:13:46.663Z,21.04
2022-08-21T01:16:20.408Z,20.99
2022-08-21T01:18:49.812Z,20.99
2022-08-21T01:21:27.868Z,20.91
2022-08-21T01:23:57.828Z,20.85
2022-08-21T01:26:35.453Z,20.82
2022-08-21T01:29:50.033Z,20.77
2022-08-21T01:32:21.197Z,20.66
2022-08-21T01:34:52.170Z,20.62
2022-08-21T01:37:22.974Z,20.58
2022-08-21T01:39:50.362Z,20.59
2022-08-21T01:42:17.807Z,20.66
2022-08-21T01:44:45.453Z,20.69
2022-08-21T01:47:16.113Z,20.69
2022-08-21T01:49:46.471Z,20.66
2022-08-21T01:52:14.382Z,20.70
2022-08-21T01:54:42.876Z,20.77
2022-08-21T01:57:11.367Z,20.72
2022-08-21T01:59:38.883Z,20.60
2022-08-21T02:02:06.986Z,20.53
2022-08-21T02:04:34.653Z,20.47
2022-08-21T02:07:03.413Z,20.51
2022-08-21T02:09:30.974Z,20.53
2022-08-21T02:11:58.647Z,20.47
2022-08-21T02:14:28.691Z,20.40
2022-08-21T02:17:05.233Z,20.33
2022-08-21T02:19:40.399Z,20.33
2022-08-21T02:22:10.842Z,20.40
2022-08-21T02:24:53.795Z,20.35
2022-08-21T02:27:26.072Z,20.30
2022-08-21T02:29:56.801Z,20.32
2022-08-21T02:32:24.486Z,20.32
2022-08-21T02:34:51.808Z,20.28
2022-08-21T02:37:19.200Z,20.37
2022-08-21T02:39:46.683Z,20.40
2022-08-21T02:42:14.027Z,20.35
2022-08-21T02:44:41.296Z,20.29
2022-08-21T02:47:08.747Z,20.27
2022-08-21T02:49:36.165Z,20.25
2022-08-21T02:52:03.922Z,20.33
2022-08-21T02:54:31.185Z,20.31
2022-08-21T02:56:58.448Z,20.24
2022-08-21T02:59:25.699Z,20.43
2022-08-21T03:01:53.060Z,20.41
2022-08-21T03:04:20.884Z,20.27
2022-08-21T03:06:48.783Z,20.19
2022-08-21T03:09:16.056Z,20.19
2022-08-21T03:11:43.315Z,20.16
2022-08-21T03:14:10.612Z,20.16
2022-08-21T03:16:37.838Z,20.04
2022-08-21T03:19:05.617Z,20.04
2022-08-21T03:21:32.997Z,20.10
2022-08-21T03:24:00.373Z,20.11
2022-08-21T03:26:32.490Z,19.95
2022-08-21T03:29:00.066Z,19.84
2022-08-21T03:31:31.904Z,19.84
2022-08-21T03:33:59.977Z,19.76
2022-08-21T03:36:27.409Z,19.65
2022-08-21T03:38:54.843Z,19.59
2022-08-21T03:41:22.413Z,19.55
2022-08-21T03:43:49.766Z,19.50
2022-08-21T03:46:17.237Z,19.39
2022-08-21T03:48:45.302Z,19.37
2022-08-21T03:51:13.102Z,19.37
2022-08-21T03:53:40.810Z,19.35
2022-08-21T03:56:08.721Z,19.28
2022-08-21T03:58:36.245Z,19.28
2022-08-21T04:01:07.239Z,19.20
2022-08-21T04:03:37.879Z,19.20
2022-08-21T04:06:06.434Z,19.21
2022-08-21T04:08:34.848Z,19.20
2022-08-21T04:11:02.915Z,19.29
2022-08-21T04:13:30.285Z,19.33
2022-08-21T04:15:59.574Z,19.30
2022-08-21T04:18:26.946Z,19.21
2022-08-21T04:20:57.762Z,19.12
2022-08-21T04:23:26.504Z,19.08
2022-08-21T04:25:56.584Z,18.99
2022-08-21T04:28:29.264Z,18.98
2022-08-21T04:30:59.130Z,18.99
2022-08-21T04:33:26.743Z,18.95
2022-08-21T04:35:54.625Z,18.88
2022-08-21T04:38:22.086Z,18.92
2022-08-21T04:40:51.294Z,18.98
2022-08-21T04:43:19.260Z,19.01
2022-08-21T04:45:48.970Z,19.07
2022-08-21T04:48:21.795Z,19.11
2022-08-21T04:51:14.377Z,19.17
2022-08-21T04:53:53.081Z,19.21
2022-08-21T04:56:33.792Z,19.25
2022-08-21T04:59:08.601Z,19.26
2022-08-21T05:01:38.787Z,19.24
2022-08-21T05:04:10.301Z,19.24
2022-08-21T05:06:39.891Z,19.20
2022-08-21T05:09:08.506Z,19.21
2022-08-21T05:11:38.013Z,19.29
2022-08-21T05:14:05.465Z,19.36
2022-08-21T05:16:37.070Z,19.38
2022-08-21T05:19:07.039Z,19.45
2022-08-21T05:21:38.961Z,19.53
2022-08-21T05:24:06.272Z,19.64
2022-08-21T05:26:34.334Z,19.70
2022-08-21T05:29:13.594Z,19.87
2022-08-21T05:31:40.821Z,19.89
2022-08-21T05:34:09.049Z,19.98
2022-08-21T05:36:36.642Z,19.98
2022-08-21T05:39:04.731Z,19.90
2022-08-21T05:41:32.000Z,19.94
2022-08-21T05:44:01.703Z,20.01
2022-08-21T05:46:29.053Z,20.06
2022-08-21T05:48:56.273Z,20.17
2022-08-21T05:51:24.309Z,20.24
2022-08-21T05:53:51.588Z,20.30
2022-08-21T05:56:19.109Z,20.39
2022-08-21T05:58:46.392Z,20.51
2022-08-21T06:01:15.587Z,20.64
2022-08-21T06:03:43.681Z,20.74
2022-08-21T06:06:11.160Z,20.78
2022-08-21T06:08:38.644Z,20.82
2022-08-21T06:11:06.997Z,20.90
2022-08-21T06:13:36.016Z,21.03
2022-08-21T06:16:07.474Z,21.17
2022-08-21T06:18:36.702Z,21.27
2022-08-21T06:21:05.216Z,21.37
2022-08-21T06:23:33.638Z,21.42
2022-08-21T06:26:04.072Z,21.52
2022-08-21T06:28:32.228Z,21.58
2022-08-21T06:30:59.456Z,21.74
2022-08-21T06:33:32.326Z,21.88
2022-08-21T06:36:00.849Z,22.05
2022-08-21T06:38:28.039Z,22.14
2022-08-21T06:40:56.334Z,22.22
2022-08-21T06:43:35.703Z,22.29
2022-08-21T06:46:08.914Z,22.39
2022-08-21T06:48:36.470Z,22.47
2022-08-21T06:51:04.057Z,22.61
2022-08-21T06:53:31.441Z,22.74
2022-08-21T06:55:58.709Z,22.85
2022-08-21T06:58:26.168Z,22.88
2022-08-21T07:00:56.492Z,22.89
2022-08-21T07:03:42.128Z,22.95
2022-08-21T07:06:12.357Z,23.08
2022-08-21T07:08:40.254Z,23.19
2022-08-21T07:11:23.325Z,23.35
2022-08-21T07:13:55.000Z,23.54
2022-08-21T07:16:23.115Z,23.58
2022-08-21T07:18:50.810Z,23.57
2022-08-21T07:21:21.613Z,23.80
2022-08-21T07:23:52.905Z,23.94
2022-08-21T07:26:23.893Z,24.04
2022-08-21T07:28:52.676Z,24.08
2022-08-21T07:31:23.886Z,24.17
2022-08-21T07:33:52.093Z,24.25
2022-08-21T07:36:19.576Z,24.34
2022-08-21T07:38:47.050Z,24.43
2022-08-21T07:41:22.683Z,24.36
2022-08-21T07:43:52.816Z,24.39
2022-08-21T07:46:21.008Z,24.50
2022-08-21T07:48:48.722Z,24.72
2022-08-21T07:51:18.470Z,24.75
2022-08-21T07:53:52.512Z,24.74
2022-08-21T07:56:20.987Z,24.74
2022-08-21T07:58:48.904Z,24.90
2022-08-21T08:01:16.954Z,24.92
2022-08-21T08:03:44.536Z,24.87
2022-08-21T08:06:13.480Z,24.92
2022-08-21T08:08:42.627Z,24.92
2022-08-21T08:11:12.176Z,24.92
2022-08-21T08:13:47.756Z,24.90
2022-08-21T08:16:16.593Z,24.87
2022-08-21T08:18:45.281Z,25.01
2022-08-21T08:21:14.302Z,25.26
2022-08-21T08:23:41.598Z,25.24
2022-08-21T08:26:08.821Z,25.23
2022-08-21T08:28:36.109Z,25.30
2022-08-21T08:31:03.901Z,25.52
2022-08-21T08:33:31.487Z,25.37
2022-08-21T08:36:01.292Z,25.31
2022-08-21T08:38:30.854Z,25.60
2022-08-21T08:41:19.718Z,25.70
2022-08-21T08:44:04.977Z,25.74
2022-08-21T08:46:51.773Z,25.95
2022-08-21T08:49:30.493Z,25.85
2022-08-21T08:52:14.926Z,26.06
2022-08-21T08:54:59.095Z,26.35
2022-08-21T08:57:27.077Z,26.28
2022-08-21T09:00:04.364Z,26.23
2022-08-21T09:02:34.405Z,26.36
2022-08-21T09:05:02.143Z,26.39
2022-08-21T09:07:31.838Z,26.33
2022-08-21T09:10:44.871Z,26.32
2022-08-21T09:13:35.358Z,26.34
2022-08-21T09:16:55.344Z,26.44
2022-08-21T09:19:54.452Z,26.69
2022-08-21T09:23:16.752Z,26.71
2022-08-21T09:26:19.784Z,26.58
2022-08-21T09:28:56.425Z,26.58
2022-08-21T09:31:27.534Z,26.84
2022-08-21T09:34:12.404Z,26.67
2022-08-21T09:36:50.528Z,26.80
2022-08-21T09:39:43.566Z,26.81
2022-08-21T09:42:35.492Z,27.07
2022-08-21T09:45:19.113Z,27.19
2022-08-21T09:47:46.672Z,27.14
2022-08-21T09:50:27.735Z,27.20
2022-08-21T09:53:01.433Z,27.28
2022-08-21T09:55:59.276Z,27.30
2022-08-21T09:58:38.172Z,27.24
2022-08-21T10:01:13.041Z,27.45
2022-08-21T10:03:40.300Z,27.37
2022-08-21T10:06:11.718Z,27.21
2022-08-21T10:08:43.730Z,27.29
2022-08-21T10:11:16.417Z,27.30
2022-08-21T10:13:57.265Z,27.31
2022-08-21T10:17:24.677Z,27.50
2022-08-21T10:20:21.177Z,27.52
2022-08-21T10:23:41.332Z,27.79
2022-08-21T10:26:44.955Z,27.91
2022-08-21T10:29:44.873Z,27.95
2022-08-21T10:32:42.405Z,28.01
2022-08-21T10:35:32.984Z,28.14
2022-08-21T10:38:50.289Z,28.25
2022-08-21T10:41:44.295Z,28.25
2022-08-21T10:44:49.061Z,28.30
2022-08-21T10:47:42.827Z,28.13
2022-08-21T10:50:28.095Z,28.44
2022-08-21T10:53:52.721Z,28.72
2022-08-21T10:56:33.373Z,28.96
2022-08-21T10:59:54.709Z,28.94
2022-08-21T11:02:58.924Z,28.90
2022-08-21T11:06:04.550Z,28.69
2022-08-21T11:08:43.672Z,28.90
2022-08-21T11:11:36.313Z,29.01
2022-08-21T11:14:44.701Z,29.10
2022-08-21T11:17:31.569Z,30.24
2022-08-21T11:20:42.702Z,30.79
2022-08-21T11:23:43.197Z,31.01
2022-08-21T11:26:38.242Z,31.27
2022-08-21T11:29:37.366Z,32.06
2022-08-21T11:32:38.546Z,32.28
2022-08-21T11:35:37.951Z,32.48
2022-08-21T11:38:41.945Z,32.69
2022-08-21T11:41:31.493Z,33.23
2022-08-21T11:44:30.623Z,33.68
2022-08-21T11:47:06.623Z,33.48
2022-08-21T11:49:51.565Z,33.10
2022-08-21T11:52:30.500Z,32.39
2022-08-21T11:55:26.389Z,31.47
2022-08-21T11:58:18.777Z,31.36
2022-08-21T12:01:11.833Z,31.11
2022-08-21T12:03:54.073Z,30.37
2022-08-21T12:06:34.920Z,29.72
2022-08-21T12:09:09.716Z,29.63
2022-08-21T12:12:12.060Z,30.06
2022-08-21T12:14:48.661Z,29.42
2022-08-21T12:17:36.394Z,29.62
2022-08-21T12:20:45.085Z,29.53
2022-08-21T12:23:35.356Z,29.69
2022-08-21T12:26:34.145Z,29.35
2022-08-21T12:29:15.732Z,29.55
2022-08-21T12:31:57.283Z,30.37
2022-08-21T12:34:49.774Z,30.80
2022-08-21T12:37:40.818Z,30.64
2022-08-21T12:40:27.468Z,30.79
2022-08-21T12:43:00.570Z,30.99
2022-08-21T12:45:43.971Z,30.83
2022-08-21T12:48:52.386Z,30.04
2022-08-21T12:51:47.926Z,30.80
2022-08-21T12:54:28.601Z,30.86
2022-08-21T12:57:25.313Z,30.74
2022-08-21T13:00:12.606Z,31.16
2022-08-21T13:02:49.710Z,31.11
2022-08-21T13:05:38.181Z,31.84
2022-08-21T13:08:10.405Z,32.91
2022-08-21T13:10:41.137Z,33.03
2022-08-21T13:13:25.036Z,32.54
2022-08-21T13:16:08.261Z,32.71
2022-08-21T13:18:55.407Z,32.00
2022-08-21T13:21:35.673Z,31.70
2022-08-21T13:24:42.681Z,33.83
2022-08-21T13:27:31.769Z,36.13
2022-08-21T13:30:23.136Z,37.64
2022-08-21T13:33:02.878Z,36.81
2022-08-21T13:35:48.177Z,35.75
2022-08-21T13:38:17.137Z,36.04
2022-08-21T13:41:11.257Z,36.52
2022-08-21T13:43:38.877Z,37.74
2022-08-21T13:46:14.111Z,37.04
2022-08-21T13:48:42.709Z,36.86
2022-08-21T13:51:11.564Z,39.38
2022-08-21T13:53:53.289Z,39.84
2022-08-21T13:56:31.834Z,39.02
2022-08-21T13:59:02.291Z,39.35
2022-08-21T14:01:55.729Z,39.32
2022-08-21T14:04:52.969Z,40.02
2022-08-21T14:07:33.957Z,40.04
2022-08-21T14:10:30.475Z,40.60
2022-08-21T14:13:04.984Z,40.68
2022-08-21T14:15:36.224Z,40.96
2022-08-21T14:18:19.430Z,41.13
2022-08-21T14:20:47.475Z,41.41
2022-08-21T14:23:28.241Z,41.79
2022-08-21T14:26:05.042Z,41.70
2022-08-21T14:28:42.522Z,40.94
2022-08-21T14:31:30.412Z,40.99
2022-08-21T14:33:58.135Z,39.99
2022-08-21T14:36:25.626Z,41.14
2022-08-21T14:38:53.089Z,42.14
2022-08-21T14:41:28.486Z,41.23
2022-08-21T14:44:06.140Z,42.80
2022-08-21T14:46:54.155Z,39.89
2022-08-21T14:49:29.878Z,41.96
2022-08-21T14:52:00.336Z,39.62
2022-08-21T14:54:32.519Z,42.45
2022-08-21T14:57:09.702Z,43.39
2022-08-21T14:59:39.021Z,44.08
2022-08-21T15:02:09.241Z,44.80
2022-08-21T15:04:36.900Z,43.40
2022-08-21T15:07:05.331Z,44.39
2022-08-21T15:09:32.632Z,44.38
2022-08-21T15:12:03.117Z,44.85
2022-08-21T15:14:34.558Z,43.06
2022-08-21T15:17:02.142Z,43.48
2022-08-21T15:19:30.590Z,44.29
2022-08-21T15:21:58.313Z,44.54
2022-08-21T15:24:26.510Z,44.38
2022-08-21T15:26:55.924Z,42.24
2022-08-21T15:29:23.488Z,43.65
2022-08-21T15:32:23.892Z,45.16
2022-08-21T15:34:53.185Z,44.94
2022-08-21T15:37:21.899Z,42.99
2022-08-21T15:39:54.103Z,45.07
2022-08-21T15:42:23.064Z,45.36
2022-08-21T15:44:50.939Z,44.00
2022-08-21T15:47:24.051Z,44.34
2022-08-21T15:49:51.414Z,45.10
2022-08-21T15:52:21.793Z,45.05
2022-08-21T15:54:50.310Z,44.09
2022-08-21T15:57:22.968Z,44.55
2022-08-21T16:00:09.971Z,44.73
2022-08-21T16:02:44.168Z,45.90
2022-08-21T16:05:13.009Z,45.37
2022-08-21T16:07:41.355Z,43.59
2022-08-21T16:10:09.192Z,44.00
2022-08-21T16:12:54.789Z,44.43
2022-08-21T16:15:22.233Z,44.93
2022-08-21T16:17:52.317Z,44.95
2022-08-21T16:20:29.727Z,44.27
2022-08-21T16:22:58.913Z,44.05
2022-08-21T16:25:27.454Z,44.20
2022-08-21T16:28:00.964Z,44.13
2022-08-21T16:30:30.008Z,43.20
2022-08-21T16:32:57.811Z,43.56
2022-08-21T16:35:25.320Z,43.57
2022-08-21T16:37:53.520Z,43.87
2022-08-21T16:40:27.262Z,43.59
2022-08-21T16:42:55.535Z,43.40
2022-08-21T16:45:23.297Z,43.62
2022-08-21T16:47:51.355Z,43.59
2022-08-21T16:50:24.013Z,43.35
2022-08-21T16:52:52.368Z,42.59
2022-08-21T16:55:19.784Z,43.21
2022-08-21T16:57:47.225Z,42.98
2022-08-21T17:00:15.729Z,43.05
2022-08-21T17:02:49.104Z,42.86
2022-08-21T17:05:17.391Z,42.24
2022-08-21T17:07:45.638Z,41.78
2022-08-21T17:10:17.043Z,41.40
2022-08-21T17:12:51.450Z,41.34
2022-08-21T17:15:27.906Z,40.73
2022-08-21T17:17:56.526Z,41.00
2022-08-21T17:20:26.015Z,40.69
2022-08-21T17:22:53.801Z,40.79
2022-08-21T17:25:21.080Z,40.13
2022-08-21T17:27:49.704Z,38.22
2022-08-21T17:30:18.641Z,36.06
2022-08-21T17:32:48.852Z,34.95
2022-08-21T17:35:16.260Z,34.39
2022-08-21T17:37:43.489Z,33.43
2022-08-21T17:40:15.357Z,32.60
2022-08-21T17:42:46.847Z,32.47
2022-08-21T17:45:19.794Z,32.27
2022-08-21T17:47:47.414Z,31.92
2022-08-21T17:50:22.587Z,31.58
2022-08-21T17:52:50.615Z,31.38
2022-08-21T17:55:20.427Z,30.97
2022-08-21T17:57:51.947Z,30.86
2022-08-21T18:00:20.946Z,30.55
2022-08-21T18:02:59.746Z,30.41
2022-08-21T18:05:27.455Z,30.23
2022-08-21T18:07:54.763Z,30.12
2022-08-21T18:10:22.292Z,29.93
2022-08-21T18:12:50.226Z,29.70
2022-08-21T18:15:20.641Z,29.54
2022-08-21T18:17:51.395Z,29.30
2022-08-21T18:20:22.886Z,29.01
2022-08-21T18:22:51.188Z,28.90
2022-08-21T18:25:18.773Z,28.83
2022-08-21T18:27:47.845Z,28.75
2022-08-21T18:30:22.387Z,28.56
2022-08-21T18:32:51.092Z,28.26
2022-08-21T18:35:19.280Z,27.91
2022-08-21T18:37:46.487Z,27.56
2022-08-21T18:40:15.659Z,27.42
2022-08-21T18:42:58.578Z,27.31
2022-08-21T18:45:26.060Z,27.31
2022-08-21T18:47:57.599Z,27.33
2022-08-21T18:50:29.135Z,27.35
2022-08-21T18:52:57.125Z,27.21
2022-08-21T18:55:25.469Z,26.97
2022-08-21T18:57:55.494Z,26.91
2022-08-21T19:00:30.968Z,27.03
2022-08-21T19:02:59.302Z,26.86
2022-08-21T19:05:27.230Z,26.70
2022-08-21T19:07:55.813Z,26.58
2022-08-21T19:13:15.832Z,26.58
2022-08-21T19:15:46.880Z,26.58
2022-08-21T19:18:17.547Z,26.49
2022-08-21T19:20:47.358Z,26.44
2022-08-21T19:23:17.893Z,26.40
2022-08-21T19:25:51.760Z,26.36
2022-08-21T19:28:29.661Z,26.21
2022-08-21T19:31:11.394Z,26.13
2022-08-21T19:33:44.298Z,26.03
2022-08-21T19:36:13.386Z,25.94
2022-08-21T19:38:42.564Z,25.92
2022-08-21T19:41:15.037Z,25.81
2022-08-21T19:43:55.760Z,25.70
2022-08-21T19:46:35.068Z,25.57
2022-08-21T19:49:06.824Z,25.51
2022-08-21T19:51:35.812Z,25.47
2022-08-21T19:54:03.695Z,25.43
2022-08-21T19:56:34.345Z,25.45
2022-08-21T19:59:04.936Z,25.41
2022-08-21T20:01:34.850Z,25.37
2022-08-21T20:04:02.392Z,25.33
2022-08-21T20:06:31.736Z,25.23
2022-08-21T20:08:59.155Z,25.14
2022-08-21T20:11:37.889Z,25.00
2022-08-21T20:14:07.858Z,24.91
2022-08-21T20:16:35.848Z,24.89
2022-08-21T20:19:05.265Z,24.84
2022-08-21T20:21:43.539Z,24.76
2022-08-21T20:24:14.703Z,24.75
2022-08-21T20:26:48.667Z,24.76
2022-08-21T20:32:12.187Z,24.64
2022-08-21T20:34:41.617Z,24.55
2022-08-21T20:37:13.001Z,24.55
2022-08-21T20:42:27.862Z,24.42
2022-08-21T20:44:55.397Z,24.43
2022-08-21T20:47:22.780Z,24.40
2022-08-21T20:50:00.811Z,24.36
2022-08-21T20:52:37.220Z,24.38
2022-08-21T20:55:14.840Z,24.39
2022-08-21T20:58:04.467Z,24.43
2022-08-21T21:00:40.729Z,24.41
2022-08-21T21:03:30.132Z,24.40
2022-08-21T21:06:06.512Z,24.32
2022-08-21T21:08:53.865Z,24.29
2022-08-21T21:11:32.001Z,24.20
2022-08-21T21:14:11.381Z,24.11
2022-08-21T21:17:04.442Z,24.05
2022-08-21T21:19:46.342Z,24.00
2022-08-21T21:22:26.673Z,24.04
2022-08-21T21:25:11.168Z,24.07
2022-08-21T21:27:53.569Z,23.97
2022-08-21T21:30:46.878Z,23.94
2022-08-21T21:33:19.369Z,23.90
2022-08-21T21:35:59.556Z,23.87
2022-08-21T21:38:55.119Z,23.83
2022-08-21T21:41:41.186Z,23.80
2022-08-21T21:44:27.445Z,23.83
2022-08-21T21:47:33.768Z,23.78
2022-08-21T21:51:12.196Z,23.77
2022-08-21T21:54:04.884Z,23.72
2022-08-21T21:57:19.258Z,23.71
2022-08-21T22:00:26.418Z,23.68
2022-08-21T22:03:13.191Z,23.65
2022-08-21T22:06:09.988Z,23.58
2022-08-21T22:09:14.348Z,23.50
2022-08-21T22:12:50.111Z,23.46
2022-08-21T22:15:27.703Z,23.36
2022-08-21T22:18:12.218Z,23.30
2022-08-21T22:21:10.344Z,23.21
2022-08-21T22:23:51.113Z,23.14
2022-08-21T22:26:48.463Z,23.07
2022-08-21T22:29:22.792Z,22.97
2022-08-21T22:32:11.246Z,22.96
2022-08-21T22:34:39.773Z,22.94
2022-08-21T22:37:12.776Z,22.88
2022-08-21T22:39:46.011Z,22.86
2022-08-21T22:42:25.305Z,22.76
2022-08-21T22:45:00.955Z,22.73
2022-08-21T22:47:36.536Z,22.66
2022-08-21T22:50:33.482Z,22.57
2022-08-21T22:53:09.880Z,22.54
2022-08-21T22:55:54.926Z,22.48
2022-08-21T22:58:54.085Z,22.47
2022-08-21T23:01:21.391Z,22.51
2022-08-21T23:03:59.492Z,22.52
2022-08-21T23:06:44.527Z,22.50
2022-08-21T23:09:47.535Z,22.46
2022-08-21T23:12:33.927Z,22.43
2022-08-21T23:15:19.176Z,22.40
2022-08-21T23:18:06.069Z,22.34
2022-08-21T23:21:46.788Z,22.37
2022-08-21T23:24:49.923Z,22.35
2022-08-21T23:27:38.189Z,22.34
2022-08-21T23:30:30.173Z,22.24
2022-08-21T23:33:21.545Z,22.22
2022-08-21T23:36:28.250Z,22.14
2022-08-21T23:39:31.438Z,22.08
2022-08-21T23:42:19.781Z,22.08
2022-08-21T23:45:17.308Z,22.09
2022-08-21T23:48:03.749Z,22.15
2022-08-21T23:51:01.920Z,22.18
2022-08-21T23:54:17.000Z,22.22
2022-08-21T23:57:31.726Z,22.19
